createdAt,value
2018-06-21T00:00:21.769Z,4
2018-06-21T00:01:31.514Z,4
2018-06-21T00:02:41.255Z,4
2018-06-21T00:03:51.259Z,4
2018-06-21T00:05:01.264Z,4
2018-06-21T00:06:10.736Z,4
2018-06-21T00:07:20.476Z,4
2018-06-21T00:08:30.226Z,4
2018-06-21T00:09:39.965Z,4
2018-06-21T00:10:50.024Z,4
2018-06-21T00:11:59.228Z,0
2018-06-21T00:13:08.988Z,0
2018-06-21T00:14:18.210Z,4
2018-06-21T00:15:28.213Z,4
2018-06-21T00:16:37.960Z,4
2018-06-21T00:17:47.695Z,4
2018-06-21T00:18:57.449Z,4
2018-06-21T00:20:07.456Z,4
2018-06-21T00:21:17.198Z,4
2018-06-21T00:22:26.933Z,4
2018-06-21T00:23:36.140Z,4
2018-06-21T00:24:46.140Z,8
2018-06-21T00:25:56.149Z,8
2018-06-21T00:27:06.152Z,4
2018-06-21T00:28:15.642Z,4
2018-06-21T00:29:25.665Z,4
2018-06-21T00:30:35.695Z,4
2018-06-21T00:31:44.897Z,4
2018-06-21T00:32:54.637Z,8
2018-06-21T00:34:04.375Z,8
2018-06-21T00:35:14.110Z,8
2018-06-21T00:36:23.583Z,4
2018-06-21T00:37:33.592Z,8
2018-06-21T00:38:43.596Z,8
2018-06-21T00:39:53.332Z,8
2018-06-21T00:41:03.073Z,8
2018-06-21T00:42:13.079Z,8
2018-06-21T00:43:22.815Z,12
2018-06-21T00:44:32.616Z,8
2018-06-21T00:45:42.091Z,12
2018-06-21T00:46:51.835Z,12
2018-06-21T00:48:01.837Z,12
2018-06-21T00:49:11.051Z,12
2018-06-21T00:50:20.801Z,12
2018-06-21T00:51:30.536Z,16
2018-06-21T00:52:40.008Z,12
2018-06-21T00:53:49.748Z,16
2018-06-21T00:54:59.488Z,16
2018-06-21T00:56:09.232Z,20
2018-06-21T00:57:18.972Z,20
2018-06-21T00:58:28.183Z,20
2018-06-21T00:59:37.943Z,20
2018-06-21T01:00:47.680Z,24
2018-06-21T01:01:57.681Z,24
2018-06-21T01:03:07.420Z,24
2018-06-21T01:04:17.422Z,24
2018-06-21T01:05:27.160Z,28
2018-06-21T01:06:37.160Z,32
2018-06-21T01:07:46.904Z,32
2018-06-21T01:08:56.634Z,32
2018-06-21T01:10:06.637Z,36
2018-06-21T01:11:16.640Z,36
2018-06-21T01:12:26.376Z,40
2018-06-21T01:13:36.109Z,44
2018-06-21T01:14:45.580Z,44
2018-06-21T01:15:55.320Z,44
2018-06-21T01:17:04.838Z,48
2018-06-21T01:18:14.572Z,52
2018-06-21T01:19:24.577Z,52
2018-06-21T01:20:34.310Z,56
2018-06-21T01:21:44.312Z,60
2018-06-21T01:22:54.310Z,60
2018-06-21T01:24:04.042Z,64
2018-06-21T01:25:14.042Z,68
2018-06-21T01:26:24.112Z,72
2018-06-21T01:27:34.126Z,76
2018-06-21T01:28:44.126Z,84
2018-06-21T01:29:53.860Z,88
2018-06-21T01:31:03.863Z,92
2018-06-21T01:32:13.594Z,96
2018-06-21T01:33:23.592Z,104
2018-06-21T01:34:33.326Z,108
2018-06-21T01:35:43.063Z,116
2018-06-21T01:36:52.806Z,124
2018-06-21T01:38:02.542Z,128
2018-06-21T01:39:12.272Z,136
2018-06-21T01:40:21.740Z,144
2018-06-21T01:41:31.474Z,152
2018-06-21T01:42:41.492Z,156
2018-06-21T01:43:51.495Z,164
2018-06-21T01:45:01.515Z,172
2018-06-21T01:46:10.988Z,180
2018-06-21T01:47:20.722Z,188
2018-06-21T01:48:30.462Z,196
2018-06-21T01:49:40.194Z,196
2018-06-21T01:50:49.928Z,204
2018-06-21T01:51:59.397Z,208
2018-06-21T01:53:08.597Z,216
2018-06-21T01:54:18.330Z,224
2018-06-21T01:55:28.343Z,232
2018-06-21T01:56:37.811Z,240
2018-06-21T01:57:47.812Z,248
2018-06-21T01:58:57.807Z,256
2018-06-21T02:00:07.293Z,264
2018-06-21T02:01:17.028Z,276
2018-06-21T02:02:26.766Z,292
2018-06-21T02:03:36.770Z,304
2018-06-21T02:04:46.771Z,316
2018-06-21T02:05:56.507Z,324
2018-06-21T02:07:06.511Z,332
2018-06-21T02:08:16.645Z,344
2018-06-21T02:09:26.648Z,352
2018-06-21T02:10:36.382Z,360
2018-06-21T02:11:46.119Z,368
2018-06-21T02:12:56.133Z,388
2018-06-21T02:14:05.866Z,404
2018-06-21T02:15:15.870Z,420
2018-06-21T02:16:25.614Z,444
2018-06-21T02:17:35.346Z,468
2018-06-21T02:18:45.080Z,492
2018-06-21T02:19:55.082Z,504
2018-06-21T02:21:04.553Z,508
2018-06-21T02:22:14.021Z,512
2018-06-21T02:23:23.757Z,524
2018-06-21T02:24:33.757Z,544
2018-06-21T02:25:43.756Z,560
2018-06-21T02:26:53.757Z,576
2018-06-21T02:28:03.496Z,588
2018-06-21T02:29:13.235Z,600
2018-06-21T02:30:22.996Z,616
2018-06-21T02:31:32.209Z,632
2018-06-21T02:32:41.942Z,652
2018-06-21T02:33:51.944Z,672
2018-06-21T02:35:01.953Z,688
2018-06-21T02:36:11.434Z,696
2018-06-21T02:37:21.447Z,700
2018-06-21T02:38:31.193Z,700
2018-06-21T02:39:40.944Z,696
2018-06-21T02:40:50.962Z,704
2018-06-21T02:42:01.017Z,724
2018-06-21T02:43:11.029Z,748
2018-06-21T02:44:20.767Z,772
2018-06-21T02:45:30.785Z,800
2018-06-21T02:46:40.565Z,824
2018-06-21T02:47:50.582Z,832
2018-06-21T02:49:02.596Z,836
2018-06-21T02:50:12.346Z,844
2018-06-21T02:51:22.089Z,868
2018-06-21T02:52:31.825Z,896
2018-06-21T02:53:41.559Z,908
2018-06-21T02:54:51.566Z,912
2018-06-21T02:56:01.568Z,920
2018-06-21T02:57:11.038Z,928
2018-06-21T02:58:21.039Z,944
2018-06-21T02:59:31.055Z,976
2018-06-21T03:03:40.011Z,1156
2018-06-21T03:04:49.483Z,1192
2018-06-21T03:05:59.225Z,1232
2018-06-21T03:07:08.738Z,1292
2018-06-21T03:08:18.762Z,1368
2018-06-21T03:09:30.511Z,1432
2018-06-21T03:10:40.524Z,1468
2018-06-21T03:11:50.540Z,1512
2018-06-21T03:13:00.285Z,1544
2018-06-21T03:14:10.036Z,1556
2018-06-21T03:15:20.055Z,1540
2018-06-21T03:16:29.795Z,1520
2018-06-21T03:17:39.529Z,1500
2018-06-21T03:18:49.538Z,1464
2018-06-21T03:19:59.549Z,1440
2018-06-21T03:21:09.025Z,1424
2018-06-21T03:22:19.057Z,1412
2018-06-21T03:23:29.064Z,1404
2018-06-21T03:24:39.066Z,1400
2018-06-21T03:25:49.074Z,1396
2018-06-21T03:26:59.078Z,1412
2018-06-21T03:28:08.811Z,1452
2018-06-21T03:29:18.562Z,1516
2018-06-21T03:30:28.319Z,1584
2018-06-21T03:31:38.073Z,1648
2018-06-21T03:32:47.814Z,1696
2018-06-21T03:33:57.820Z,1720
2018-06-21T03:35:07.823Z,1748
2018-06-21T03:36:17.842Z,1784
2018-06-21T03:37:27.579Z,1780
2018-06-21T03:38:37.316Z,1748
2018-06-21T03:39:47.063Z,1736
2018-06-21T03:40:57.073Z,1728
2018-06-21T03:42:06.821Z,1724
2018-06-21T03:43:16.826Z,1708
2018-06-21T03:44:26.566Z,1696
2018-06-21T03:45:36.040Z,1696
2018-06-21T03:46:45.781Z,1696
2018-06-21T03:47:55.521Z,1688
2018-06-21T03:49:05.526Z,1656
2018-06-21T03:50:15.532Z,1624
2018-06-21T03:51:25.532Z,1588
2018-06-21T03:52:35.537Z,1576
2018-06-21T03:53:45.550Z,1600
2018-06-21T03:54:55.565Z,1644
2018-06-21T03:56:05.569Z,1704
2018-06-21T03:57:15.310Z,1756
2018-06-21T03:58:25.314Z,1800
2018-06-21T03:59:34.519Z,1836
2018-06-21T04:00:44.521Z,1868
2018-06-21T04:01:54.520Z,1900
2018-06-21T04:03:04.618Z,1932
2018-06-21T04:04:14.447Z,1972
2018-06-21T04:05:23.406Z,2016
2018-06-21T04:06:33.018Z,2060
2018-06-21T04:07:42.503Z,2120
2018-06-21T04:08:52.514Z,2172
2018-06-21T04:10:01.983Z,2224
2018-06-21T04:11:11.460Z,2272
2018-06-21T04:12:21.470Z,2332
2018-06-21T04:13:31.475Z,2392
2018-06-21T04:14:41.218Z,2444
2018-06-21T04:15:51.221Z,2476
2018-06-21T04:17:00.962Z,2496
2018-06-21T04:18:10.705Z,2508
2018-06-21T04:19:20.447Z,2536
2018-06-21T04:20:30.456Z,2576
2018-06-21T04:21:40.471Z,2620
2018-06-21T04:22:49.946Z,2640
2018-06-21T04:23:59.420Z,2648
2018-06-21T04:25:08.675Z,2640
2018-06-21T04:26:18.430Z,2616
2018-06-21T04:27:28.469Z,2628
2018-06-21T04:28:38.477Z,2640
2018-06-21T04:29:48.482Z,2656
2018-06-21T04:30:58.486Z,2664
2018-06-21T04:32:08.485Z,2684
2018-06-21T04:33:18.498Z,2732
2018-06-21T04:34:28.494Z,2784
2018-06-21T04:35:38.503Z,2804
2018-06-21T04:36:48.238Z,2776
2018-06-21T04:37:58.595Z,2744
2018-06-21T04:39:08.454Z,2748
2018-06-21T04:40:17.933Z,2752
2018-06-21T04:41:27.679Z,2792
2018-06-21T04:42:37.688Z,2864
2018-06-21T04:43:47.436Z,2920
2018-06-21T04:44:57.182Z,2912
2018-06-21T04:46:06.923Z,2800
2018-06-21T04:47:16.983Z,2596
2018-06-21T04:48:26.989Z,2520
2018-06-21T04:49:36.725Z,2564
2018-06-21T04:50:46.473Z,2620
2018-06-21T04:51:56.234Z,2584
2018-06-21T04:53:05.715Z,2548
2018-06-21T04:54:15.186Z,2536
2018-06-21T04:55:25.196Z,2604
2018-06-21T04:56:35.203Z,2728
2018-06-21T04:57:44.947Z,2908
2018-06-21T04:58:54.688Z,3104
2018-06-21T05:00:04.522Z,3208
2018-06-21T05:01:14.269Z,3280
2018-06-21T05:02:23.751Z,3316
2018-06-21T05:03:33.520Z,3368
2018-06-21T05:04:43.548Z,3448
2018-06-21T05:05:53.017Z,3540
2018-06-21T05:07:02.495Z,3568
2018-06-21T05:08:12.504Z,3648
2018-06-21T05:09:22.254Z,3608
2018-06-21T05:10:32.258Z,3620
2018-06-21T05:11:42.265Z,3820
2018-06-21T05:12:51.742Z,4052
2018-06-21T05:14:01.747Z,4256
2018-06-21T05:15:11.226Z,4164
2018-06-21T05:16:21.227Z,3960
2018-06-21T05:17:31.233Z,3760
2018-06-21T05:18:41.281Z,3600
2018-06-21T05:19:51.290Z,3408
2018-06-21T05:21:01.321Z,3228
2018-06-21T05:22:11.388Z,2976
2018-06-21T05:23:21.392Z,2768
2018-06-21T05:24:30.874Z,2676
2018-06-21T05:25:40.881Z,2584
2018-06-21T05:26:50.889Z,2540
2018-06-21T05:28:00.634Z,2532
2018-06-21T05:29:10.642Z,2576
2018-06-21T05:30:20.432Z,2636
2018-06-21T05:31:30.178Z,2684
2018-06-21T05:32:39.676Z,2720
2018-06-21T05:33:49.422Z,2756
2018-06-21T05:34:59.425Z,2764
2018-06-21T05:36:09.174Z,2724
2018-06-21T05:37:18.914Z,2688
2018-06-21T05:38:28.653Z,2704
2018-06-21T05:39:38.129Z,2656
2018-06-21T05:40:47.903Z,2624
2018-06-21T05:41:57.907Z,2616
2018-06-21T05:43:07.645Z,2604
2018-06-21T05:44:17.697Z,2644
2018-06-21T05:45:27.764Z,2744
2018-06-21T05:46:37.775Z,2804
2018-06-21T05:47:47.515Z,2884
2018-06-21T05:48:57.253Z,2996
2018-06-21T05:50:06.481Z,3092
2018-06-21T05:51:16.572Z,3128
2018-06-21T05:52:26.312Z,3140
2018-06-21T05:53:35.790Z,3296
2018-06-21T05:54:45.537Z,3252
2018-06-21T05:55:55.551Z,3148
2018-06-21T05:57:05.290Z,3080
2018-06-21T05:58:15.302Z,3080
2018-06-21T05:59:25.312Z,3084
2018-06-21T06:00:35.051Z,3372
2018-06-21T06:01:45.065Z,3424
2018-06-21T06:02:54.806Z,3364
2018-06-21T06:04:04.555Z,3352
2018-06-21T06:05:14.314Z,3436
2018-06-21T06:06:24.525Z,3496
2018-06-21T06:07:34.029Z,3460
2018-06-21T06:08:43.813Z,3548
2018-06-21T06:09:53.818Z,3608
2018-06-21T06:11:03.569Z,3612
2018-06-21T06:12:13.593Z,3664
2018-06-21T06:13:23.597Z,3732
2018-06-21T06:14:33.349Z,3852
2018-06-21T06:15:43.091Z,3788
2018-06-21T06:16:52.835Z,3624
2018-06-21T06:18:02.575Z,3576
2018-06-21T06:19:12.581Z,3568
2018-06-21T06:20:22.325Z,3652
2018-06-21T06:21:32.437Z,3760
2018-06-21T06:22:41.913Z,3892
2018-06-21T06:23:51.923Z,3832
2018-06-21T06:25:01.669Z,3800
2018-06-21T06:26:11.151Z,3812
2018-06-21T06:27:21.154Z,3736
2018-06-21T06:28:30.627Z,3672
2018-06-21T06:29:40.423Z,3628
2018-06-21T06:30:50.169Z,3548
2018-06-21T06:31:59.906Z,3504
2018-06-21T06:33:09.378Z,3460
2018-06-21T06:34:19.385Z,3288
2018-06-21T06:35:29.404Z,3236
2018-06-21T06:36:39.142Z,3248
2018-06-21T06:37:48.885Z,3228
2018-06-21T06:38:58.890Z,3172
2018-06-21T06:40:08.898Z,3184
2018-06-21T06:41:18.635Z,3236
2018-06-21T06:42:28.659Z,3300
2018-06-21T06:43:38.132Z,3376
2018-06-21T06:44:47.915Z,3436
2018-06-21T06:45:57.925Z,3436
2018-06-21T06:47:07.664Z,3508
2018-06-21T06:48:17.423Z,3612
2018-06-21T06:49:27.433Z,3668
2018-06-21T06:50:37.177Z,3624
2018-06-21T06:51:46.651Z,3676
2018-06-21T06:52:56.391Z,3828
2018-06-21T06:54:06.400Z,3752
2018-06-21T06:55:16.140Z,3648
2018-06-21T06:56:26.149Z,3632
2018-06-21T06:57:35.627Z,3656
2018-06-21T06:58:45.366Z,3648
2018-06-21T06:59:55.425Z,3756
2018-06-21T07:01:05.162Z,3852
2018-06-21T07:02:15.177Z,3980
2018-06-21T07:03:24.918Z,4100
2018-06-21T07:04:34.665Z,4168
2018-06-21T07:05:44.675Z,4200
2018-06-21T07:06:54.684Z,4124
2018-06-21T07:08:04.828Z,4192
2018-06-21T07:09:14.583Z,4380
2018-06-21T07:10:24.645Z,4592
2018-06-21T07:11:34.390Z,4756
2018-06-21T07:12:44.405Z,4884
2018-06-21T07:13:54.457Z,4884
2018-06-21T07:15:04.197Z,4840
2018-06-21T07:16:13.936Z,4908
2018-06-21T07:17:23.408Z,5192
2018-06-21T07:18:32.616Z,5308
2018-06-21T07:19:42.089Z,5196
2018-06-21T07:20:51.829Z,4976
2018-06-21T07:22:01.571Z,4844
2018-06-21T07:23:11.316Z,4856
2018-06-21T07:24:21.048Z,4892
2018-06-21T07:25:31.056Z,4820
2018-06-21T07:26:41.066Z,4728
2018-06-21T07:27:50.805Z,4588
2018-06-21T07:29:00.568Z,4384
2018-06-21T07:30:10.289Z,4364
2018-06-21T07:31:20.031Z,4368
2018-06-21T07:32:29.778Z,4372
2018-06-21T07:33:39.663Z,4604
2018-06-21T07:34:49.677Z,4960
2018-06-21T07:35:59.686Z,5104
2018-06-21T07:37:09.164Z,5244
2018-06-21T07:38:19.192Z,5464
2018-06-21T07:39:28.937Z,5800
2018-06-21T07:40:38.943Z,5988
2018-06-21T07:41:48.973Z,5836
2018-06-21T07:42:58.769Z,5412
2018-06-21T07:44:08.811Z,5480
2018-06-21T07:45:18.295Z,5448
2018-06-21T07:46:27.785Z,5184
2018-06-21T07:47:36.726Z,5144
2018-06-21T07:48:46.208Z,5364
2018-06-21T07:49:56.219Z,5744
2018-06-21T07:51:05.968Z,6324
2018-06-21T07:52:16.016Z,6332
2018-06-21T07:53:25.489Z,6088
2018-06-21T07:54:35.243Z,5912
2018-06-21T07:55:45.266Z,6064
2018-06-21T07:56:55.279Z,6160
2018-06-21T07:58:05.063Z,6112
2018-06-21T07:59:15.021Z,6040
2018-06-21T08:00:25.051Z,5912
2018-06-21T08:01:34.819Z,5768
2018-06-21T08:02:44.846Z,5476
2018-06-21T08:03:54.607Z,5276
2018-06-21T08:05:04.508Z,5388
2018-06-21T08:06:14.611Z,5364
2018-06-21T08:07:24.643Z,5240
2018-06-21T08:08:34.396Z,4932
2018-06-21T08:09:44.144Z,4636
2018-06-21T08:10:53.886Z,4420
2018-06-21T08:12:03.947Z,4396
2018-06-21T08:13:13.694Z,4196
2018-06-21T08:14:23.711Z,4264
2018-06-21T08:15:33.764Z,4140
2018-06-21T08:16:42.967Z,4340
2018-06-21T08:17:52.972Z,4572
2018-06-21T08:19:02.981Z,5012
2018-06-21T08:20:13.015Z,5280
2018-06-21T08:21:23.136Z,5524
2018-06-21T08:22:33.148Z,5852
2018-06-21T08:23:42.881Z,6428
2018-06-21T08:24:52.621Z,7664
2018-06-21T08:26:02.101Z,8628
2018-06-21T08:27:11.581Z,8936
2018-06-21T08:28:21.600Z,8808
2018-06-21T08:29:31.344Z,8856
2018-06-21T08:30:40.554Z,9876
2018-06-21T08:31:50.033Z,10108
2018-06-21T08:33:00.040Z,9272
2018-06-21T08:34:09.242Z,8396
2018-06-21T08:35:18.710Z,7844
2018-06-21T08:36:28.450Z,7568
2018-06-21T08:37:38.192Z,7220
2018-06-21T08:38:48.398Z,6512
2018-06-21T08:39:58.526Z,6600
2018-06-21T08:41:07.996Z,7368
2018-06-21T08:42:17.751Z,7624
2018-06-21T08:43:27.756Z,7544
2018-06-21T08:44:37.493Z,7480
2018-06-21T08:45:47.777Z,7404
2018-06-21T08:46:57.565Z,8380
2018-06-21T08:48:07.311Z,8536
2018-06-21T08:49:17.314Z,7448
2018-06-21T08:50:27.056Z,6756
2018-06-21T08:51:37.071Z,6632
2018-06-21T08:52:47.076Z,6592
2018-06-21T08:53:57.090Z,7092
2018-06-21T08:55:06.828Z,7748
2018-06-21T08:56:16.034Z,8744
2018-06-21T08:57:25.505Z,9424
2018-06-21T08:58:35.209Z,7520
2018-06-21T08:59:44.952Z,6148
2018-06-21T09:00:54.962Z,6324
2018-06-21T09:02:04.701Z,5892
2018-06-21T09:03:14.438Z,6520
2018-06-21T09:04:24.187Z,6348
2018-06-21T09:05:34.202Z,6940
2018-06-21T09:06:43.944Z,7712
2018-06-21T09:07:53.954Z,8328
2018-06-21T09:09:03.966Z,8620
2018-06-21T09:10:13.712Z,8456
2018-06-21T09:11:23.189Z,8208
2018-06-21T09:12:32.984Z,8424
2018-06-21T09:13:42.730Z,8456
2018-06-21T09:14:52.875Z,8664
2018-06-21T09:16:02.916Z,9140
2018-06-21T09:17:12.139Z,9808
2018-06-21T09:18:21.879Z,9848
2018-06-21T09:19:31.357Z,9740
2018-06-21T09:20:40.828Z,10088
2018-06-21T09:21:50.574Z,10544
2018-06-21T09:23:00.580Z,10708
2018-06-21T09:24:10.319Z,10832
2018-06-21T09:25:20.054Z,11152
2018-06-21T09:26:30.070Z,11288
2018-06-21T09:27:40.081Z,11348
2018-06-21T09:28:49.817Z,11392
2018-06-21T09:29:59.831Z,10964
2018-06-21T09:31:09.571Z,10180
2018-06-21T09:32:19.046Z,9612
2018-06-21T09:33:28.944Z,9200
2018-06-21T09:34:38.964Z,9700
2018-06-21T09:35:48.705Z,10320
2018-06-21T09:36:58.709Z,10944
2018-06-21T09:38:08.186Z,10820
2018-06-21T09:39:18.200Z,10044
2018-06-21T09:40:27.942Z,9092
2018-06-21T09:41:37.415Z,9128
2018-06-21T09:42:47.470Z,10020
2018-06-21T09:44:11.281Z,9980
2018-06-21T09:45:20.754Z,9320
2018-06-21T09:46:41.520Z,9904
2018-06-21T09:47:50.988Z,10488
2018-06-21T09:49:00.999Z,11032
2018-06-21T09:50:10.512Z,11196
2018-06-21T09:51:19.994Z,11148
2018-06-21T09:52:30.134Z,10972
2018-06-21T09:53:39.954Z,11124
2018-06-21T09:54:49.962Z,11416
2018-06-21T09:55:59.713Z,11892
2018-06-21T09:57:09.194Z,12084
2018-06-21T09:58:18.937Z,12284
2018-06-21T09:59:28.944Z,12380
2018-06-21T10:00:38.949Z,12020
2018-06-21T10:01:49.004Z,11504
2018-06-21T10:02:59.024Z,10620
2018-06-21T10:04:08.770Z,10136
2018-06-21T10:05:18.243Z,11424
2018-06-21T10:06:27.984Z,11416
2018-06-21T10:07:37.998Z,10796
2018-06-21T10:08:48.023Z,10476
2018-06-21T10:09:57.765Z,10120
2018-06-21T10:11:07.780Z,9356
2018-06-21T10:12:16.984Z,9012
2018-06-21T10:13:28.988Z,8976
2018-06-21T10:14:38.461Z,8656
2018-06-21T10:15:48.389Z,8328
2018-06-21T10:16:58.539Z,8788
2018-06-21T10:18:08.273Z,8924
2018-06-21T10:19:18.281Z,8972
2018-06-21T10:20:28.572Z,9076
2018-06-21T10:21:38.821Z,8708
2018-06-21T10:22:48.833Z,8112
2018-06-21T10:23:58.572Z,8036
2018-06-21T10:25:08.319Z,8508
2018-06-21T10:26:18.061Z,8684
2018-06-21T10:27:27.810Z,8320
2018-06-21T10:28:37.018Z,8336
2018-06-21T10:29:46.776Z,8716
2018-06-21T10:30:56.829Z,9236
2018-06-21T10:32:06.579Z,9428
2018-06-21T10:33:16.055Z,9552
2018-06-21T10:34:25.797Z,9456
2018-06-21T10:35:35.819Z,9508
2018-06-21T10:36:45.831Z,10208
2018-06-21T10:37:55.843Z,10044
2018-06-21T10:39:05.585Z,10740
2018-06-21T10:40:15.333Z,10888
2018-06-21T10:41:25.338Z,11008
2018-06-21T10:42:34.965Z,11540
2018-06-21T10:43:45.027Z,12048
2018-06-21T10:44:55.043Z,11652
2018-06-21T10:46:04.518Z,12108
2018-06-21T10:47:14.531Z,13096
2018-06-21T10:48:23.733Z,13532
2018-06-21T10:49:33.478Z,13356
2018-06-21T10:50:43.226Z,15036
2018-06-21T10:51:53.239Z,15860
2018-06-21T10:53:02.981Z,14924
2018-06-21T10:54:12.451Z,14124
2018-06-21T10:55:22.194Z,13716
2018-06-21T10:56:31.931Z,12848
2018-06-21T10:57:41.938Z,13628
2018-06-21T10:58:51.678Z,13968
2018-06-21T11:00:01.418Z,13796
2018-06-21T11:01:10.898Z,14828
2018-06-21T11:02:20.368Z,16352
2018-06-21T11:03:29.694Z,16928
2018-06-21T11:04:39.704Z,16896
2018-06-21T11:05:49.523Z,17632
2018-06-21T11:06:59.003Z,17760
2018-06-21T11:08:08.478Z,18560
2018-06-21T11:09:17.951Z,19648
2018-06-21T11:10:27.692Z,19904
2018-06-21T11:11:37.321Z,20000
2018-06-21T11:12:47.381Z,19936
2018-06-21T11:13:57.395Z,19744
2018-06-21T11:15:07.404Z,20288
2018-06-21T11:16:17.416Z,20896
2018-06-21T11:17:27.172Z,21408
2018-06-21T11:18:36.911Z,21472
2018-06-21T11:19:46.667Z,20992
2018-06-21T11:20:56.417Z,20448
2018-06-21T11:22:06.441Z,20992
2018-06-21T11:23:16.446Z,22176
2018-06-21T11:24:25.937Z,23072
2018-06-21T11:25:35.690Z,23360
2018-06-21T11:26:45.709Z,23616
2018-06-21T11:27:55.942Z,24032
2018-06-21T11:29:05.746Z,24768
2018-06-21T11:30:15.490Z,24928
2018-06-21T11:31:25.506Z,25024
2018-06-21T11:32:35.516Z,23968
2018-06-21T11:33:45.259Z,23232
2018-06-21T11:34:55.268Z,24096
2018-06-21T11:36:05.292Z,23936
2018-06-21T11:37:14.784Z,25632
2018-06-21T11:38:24.526Z,27136
2018-06-21T11:39:34.549Z,25184
2018-06-21T11:40:44.567Z,24064
2018-06-21T11:41:54.577Z,24928
2018-06-21T11:43:04.055Z,25888
2018-06-21T11:44:13.530Z,28736
2018-06-21T11:45:23.540Z,27488
2018-06-21T11:46:33.030Z,26592
2018-06-21T11:47:43.046Z,26752
2018-06-21T11:48:53.058Z,32032
2018-06-21T11:50:02.800Z,27360
2018-06-21T11:51:12.549Z,24704
2018-06-21T11:52:22.701Z,23808
2018-06-21T11:53:32.534Z,27520
2018-06-21T11:54:42.543Z,24768
2018-06-21T11:55:52.034Z,19456
2018-06-21T11:57:01.785Z,17248
2018-06-21T11:58:10.995Z,16480
2018-06-21T11:59:20.213Z,17344
2018-06-21T12:00:29.959Z,19456
2018-06-21T12:01:39.979Z,22720
2018-06-21T12:02:49.749Z,26336
2018-06-21T12:03:59.763Z,28416
2018-06-21T12:05:09.260Z,30560
2018-06-21T12:06:19.028Z,29024
2018-06-21T12:07:29.036Z,30432
2018-06-21T12:08:39.076Z,39424
2018-06-21T12:09:49.193Z,35584
2018-06-21T12:10:59.279Z,47968
2018-06-21T12:12:08.497Z,60672
2018-06-21T12:13:18.518Z,68160
2018-06-21T12:14:28.265Z,40640
2018-06-21T12:15:38.059Z,43040
2018-06-21T12:16:47.815Z,53664
2018-06-21T12:17:57.834Z,63264
2018-06-21T12:19:07.851Z,52160
2018-06-21T12:20:17.860Z,46048
2018-06-21T12:21:27.882Z,46176
2018-06-21T12:22:37.628Z,56352
2018-06-21T12:23:47.648Z,50944
2018-06-21T12:24:57.666Z,41824
2018-06-21T12:26:07.180Z,52480
2018-06-21T12:27:17.325Z,51968
2018-06-21T12:28:27.353Z,53088
2018-06-21T12:29:37.120Z,78560
2018-06-21T12:30:47.144Z,86656
2018-06-21T12:31:56.948Z,62880
2018-06-21T12:33:06.802Z,96352
2018-06-21T12:34:16.552Z,87072
2018-06-21T12:35:26.564Z,86336
2018-06-21T12:36:36.327Z,95008
2018-06-21T12:37:45.811Z,99712
2018-06-21T12:38:55.563Z,72416
2018-06-21T12:40:05.323Z,51968
2018-06-21T12:41:14.810Z,55424
2018-06-21T12:42:24.842Z,42144
2018-06-21T12:43:34.960Z,48032
2018-06-21T12:44:45.027Z,47040
2018-06-21T12:45:55.076Z,58656
2018-06-21T12:47:04.562Z,74976
2018-06-21T12:48:14.591Z,47744
2018-06-21T12:49:24.351Z,46080
2018-06-21T12:50:34.188Z,54624
2018-06-21T12:51:44.212Z,46784
2018-06-21T12:52:53.432Z,55840
2018-06-21T12:54:02.914Z,77504
2018-06-21T12:55:12.399Z,68064
2018-06-21T12:56:22.160Z,57248
2018-06-21T12:57:32.185Z,84800
2018-06-21T12:58:42.207Z,51872
2018-06-21T12:59:51.705Z,52096
2018-06-21T13:01:01.733Z,79936
2018-06-21T13:02:11.758Z,58016
2018-06-21T13:03:21.790Z,43072
2018-06-21T13:04:31.808Z,45984
2018-06-21T13:05:41.847Z,67008
2018-06-21T13:06:51.872Z,47488
2018-06-21T13:08:01.893Z,60448
2018-06-21T13:09:11.650Z,48864
2018-06-21T13:10:21.411Z,48064
2018-06-21T13:11:31.171Z,41184
2018-06-21T13:12:40.930Z,48416
2018-06-21T13:13:50.684Z,106912
2018-06-21T13:15:00.709Z,105792
2018-06-21T13:16:10.196Z,100864
2018-06-21T13:17:20.224Z,60960
2018-06-21T13:18:29.983Z,102336
2018-06-21T13:19:39.766Z,77248
2018-06-21T13:20:49.389Z,101632
2018-06-21T13:21:59.419Z,99296
2018-06-21T13:23:08.658Z,99264
2018-06-21T13:24:18.692Z,88992
2018-06-21T13:25:28.723Z,98528
2018-06-21T13:26:38.749Z,67136
2018-06-21T13:27:49.073Z,100160
2018-06-21T13:28:59.430Z,84032
2018-06-21T13:30:08.958Z,86752
2018-06-21T13:31:18.729Z,92736
2018-06-21T13:32:28.782Z,83520
2018-06-21T13:33:38.005Z,97952
2018-06-21T13:34:47.778Z,84064
2018-06-21T13:35:57.545Z,77920
2018-06-21T13:37:07.695Z,97664
2018-06-21T13:38:17.809Z,94656
2018-06-21T13:39:27.308Z,97312
2018-06-21T13:40:37.371Z,88864
2018-06-21T13:41:47.146Z,106944
2018-06-21T13:42:56.915Z,82880
2018-06-21T13:44:06.411Z,92000
2018-06-21T13:45:16.169Z,70880
2018-06-21T13:46:26.202Z,44832
2018-06-21T13:47:35.973Z,37440
2018-06-21T13:48:45.997Z,37664
2018-06-21T13:49:55.670Z,48032
2018-06-21T13:51:05.272Z,108416
2018-06-21T13:52:14.793Z,109376
2018-06-21T13:53:24.852Z,70432
2018-06-21T13:54:34.979Z,72288
2018-06-21T13:55:44.813Z,76512
2018-06-21T13:56:54.569Z,77120
2018-06-21T13:58:04.593Z,63680
2018-06-21T13:59:14.888Z,60480
2018-06-21T14:00:24.716Z,86464
2018-06-21T14:01:34.736Z,75904
2018-06-21T14:02:44.500Z,51488
2018-06-21T14:03:54.268Z,55136
2018-06-21T14:05:04.302Z,43008
2018-06-21T14:06:14.488Z,43488
2018-06-21T14:07:24.446Z,41600
2018-06-21T14:08:35.329Z,47776
2018-06-21T14:09:45.723Z,53952
2018-06-21T14:10:55.804Z,34432
2018-06-21T14:12:05.578Z,36544
2018-06-21T14:13:15.610Z,13016
2018-06-21T14:14:25.648Z,9572
2018-06-21T14:15:35.669Z,8864
2018-06-21T14:16:45.426Z,8896
2018-06-21T14:17:55.205Z,8872
2018-06-21T14:19:05.248Z,8984
2018-06-21T14:20:15.044Z,9220
2018-06-21T14:21:24.801Z,9616
2018-06-21T14:22:34.852Z,10028
2018-06-21T14:23:44.619Z,10348
2018-06-21T14:24:54.636Z,10516
2018-06-21T14:26:05.033Z,10252
2018-06-21T14:27:14.892Z,9936
2018-06-21T14:28:24.917Z,9528
2018-06-21T14:29:34.933Z,9260
2018-06-21T14:30:44.949Z,9156
2018-06-21T14:31:54.434Z,9136
2018-06-21T14:33:03.919Z,9172
2018-06-21T14:34:13.718Z,9252
2018-06-21T14:35:23.648Z,9396
2018-06-21T14:36:33.755Z,9572
2018-06-21T14:37:43.238Z,9772
2018-06-21T14:38:52.991Z,10056
2018-06-21T14:40:03.004Z,10424
2018-06-21T14:41:12.758Z,10988
2018-06-21T14:42:22.868Z,11800
2018-06-21T14:43:32.460Z,12840
2018-06-21T14:44:42.486Z,13960
2018-06-21T14:45:52.236Z,15084
2018-06-21T14:47:03.720Z,16212
2018-06-21T14:48:14.044Z,17376
2018-06-21T14:49:24.162Z,18176
2018-06-21T14:50:33.643Z,19104
2018-06-21T14:51:43.119Z,20352
2018-06-21T14:52:52.867Z,21088
2018-06-21T14:54:02.354Z,21440
2018-06-21T14:55:12.103Z,21216
2018-06-21T14:56:22.118Z,18176
2018-06-21T14:57:32.140Z,19904
2018-06-21T14:58:42.152Z,50048
2018-06-21T14:59:51.642Z,54848
2018-06-21T15:01:01.391Z,51456
2018-06-21T15:02:11.407Z,48768
2018-06-21T15:03:20.895Z,30336
2018-06-21T15:04:30.655Z,51680
2018-06-21T15:05:40.682Z,51360
2018-06-21T15:06:50.443Z,52000
2018-06-21T15:07:59.926Z,50368
2018-06-21T15:09:10.129Z,56192
2018-06-21T15:10:20.245Z,60640
2018-06-21T15:11:30.365Z,29920
2018-06-21T15:12:40.113Z,20416
2018-06-21T15:13:50.133Z,16384
2018-06-21T15:14:59.885Z,12760
2018-06-21T15:16:09.642Z,10636
2018-06-21T15:17:19.418Z,9180
2018-06-21T15:18:29.209Z,8192
2018-06-21T15:19:39.227Z,7832
2018-06-21T15:20:49.248Z,7796
2018-06-21T15:21:58.999Z,7808
2018-06-21T15:23:09.163Z,7880
2018-06-21T15:24:19.222Z,8416
2018-06-21T15:25:28.965Z,8260
2018-06-21T15:26:38.445Z,7092
2018-06-21T15:27:50.461Z,6440
2018-06-21T15:29:00.529Z,6728
2018-06-21T15:30:10.351Z,6924
2018-06-21T15:31:20.380Z,8016
2018-06-21T15:32:30.395Z,10012